sensor_id;sensor_type;location;lat;lon;timestamp;temperature;humidity
12948;DHT22;6539;49.476;8.484;2023-06-14T00:00:00;23.30;55.30
12948;DHT22;6539;49.476;8.484;2023-06-14T00:02:28;23.30;55.20
12948;DHT22;6539;49.476;8.484;2023-06-14T00:04:53;23.30;55.30
12948;DHT22;6539;49.476;8.484;2023-06-14T00:07:37;23.30;54.80
12948;DHT22;6539;49.476;8.484;2023-06-14T00:10:09;23.30;55.30
12948;DHT22;6539;49.476;8.484;2023-06-14T00:12:38;23.30;55.40
12948;DHT22;6539;49.476;8.484;2023-06-14T00:15:04;23.30;55.10
12948;DHT22;6539;49.476;8.484;2023-06-14T00:17:35;23.30;55.40
12948;DHT22;6539;49.476;8.484;2023-06-14T00:20:06;23.30;55.40
12948;DHT22;6539;49.476;8.484;2023-06-14T00:25:02;23.30;55.10
12948;DHT22;6539;49.476;8.484;2023-06-14T00:27:27;23.20;55.60
12948;DHT22;6539;49.476;8.484;2023-06-14T00:29:53;23.20;55.60
12948;DHT22;6539;49.476;8.484;2023-06-14T00:32:23;23.30;55.70
12948;DHT22;6539;49.476;8.484;2023-06-14T00:34:53;23.30;55.80
12948;DHT22;6539;49.476;8.484;2023-06-14T00:37:19;23.30;55.50
12948;DHT22;6539;49.476;8.484;2023-06-14T00:39:45;23.30;56.10
12948;DHT22;6539;49.476;8.484;2023-06-14T00:42:23;23.20;56.00
12948;DHT22;6539;49.476;8.484;2023-06-14T00:44:50;23.10;56.10
12948;DHT22;6539;49.476;8.484;2023-06-14T00:47:21;23.10;56.70
12948;DHT22;6539;49.476;8.484;2023-06-14T00:49:52;23.00;56.20
12948;DHT22;6539;49.476;8.484;2023-06-14T00:52:25;23.00;56.70
12948;DHT22;6539;49.476;8.484;2023-06-14T00:54:55;23.00;56.80
12948;DHT22;6539;49.476;8.484;2023-06-14T00:57:21;23.00;56.80
12948;DHT22;6539;49.476;8.484;2023-06-14T00:59:48;22.90;57.00
12948;DHT22;6539;49.476;8.484;2023-06-14T01:02:18;22.80;57.20
12948;DHT22;6539;49.476;8.484;2023-06-14T01:04:46;22.90;57.50
12948;DHT22;6539;49.476;8.484;2023-06-14T01:07:35;22.80;57.50
12948;DHT22;6539;49.476;8.484;2023-06-14T01:10:21;22.80;57.20
12948;DHT22;6539;49.476;8.484;2023-06-14T01:15:36;22.80;57.90
12948;DHT22;6539;49.476;8.484;2023-06-14T01:18:03;22.70;57.90
12948;DHT22;6539;49.476;8.484;2023-06-14T01:20:34;22.70;58.00
12948;DHT22;6539;49.476;8.484;2023-06-14T01:23:03;22.70;58.20
12948;DHT22;6539;49.476;8.484;2023-06-14T01:25:29;22.60;58.20
12948;DHT22;6539;49.476;8.484;2023-06-14T01:28:00;23.80;59.30
12948;DHT22;6539;49.476;8.484;2023-06-14T01:30:30;22.50;57.90
12948;DHT22;6539;49.476;8.484;2023-06-14T01:32:58;22.40;58.40
12948;DHT22;6539;49.476;8.484;2023-06-14T01:35:25;22.40;58.40
12948;DHT22;6539;49.476;8.484;2023-06-14T01:37:51;22.40;58.50
12948;DHT22;6539;49.476;8.484;2023-06-14T01:40:19;22.40;58.60
12948;DHT22;6539;49.476;8.484;2023-06-14T01:42:50;22.40;58.00
12948;DHT22;6539;49.476;8.484;2023-06-14T01:45:20;22.50;58.60
12948;DHT22;6539;49.476;8.484;2023-06-14T01:47:47;22.40;58.60
12948;DHT22;6539;49.476;8.484;2023-06-14T01:50:13;22.40;58.60
12948;DHT22;6539;49.476;8.484;2023-06-14T01:52:39;22.40;58.50
12948;DHT22;6539;49.476;8.484;2023-06-14T01:55:07;22.40;66.00
12948;DHT22;6539;49.476;8.484;2023-06-14T01:57:34;22.40;58.80
12948;DHT22;6539;49.476;8.484;2023-06-14T02:00:00;22.50;58.80
12948;DHT22;6539;49.476;8.484;2023-06-14T02:02:29;22.50;58.60
12948;DHT22;6539;49.476;8.484;2023-06-14T02:04:57;22.60;58.70
12948;DHT22;6539;49.476;8.484;2023-06-14T02:07:23;22.60;58.60
12948;DHT22;6539;49.476;8.484;2023-06-14T02:09:51;22.50;58.80
12948;DHT22;6539;49.476;8.484;2023-06-14T02:12:19;22.30;58.50
12948;DHT22;6539;49.476;8.484;2023-06-14T02:14:48;22.40;59.10
12948;DHT22;6539;49.476;8.484;2023-06-14T02:17:16;23.00;59.30
12948;DHT22;6539;49.476;8.484;2023-06-14T02:19:44;22.30;59.20
12948;DHT22;6539;49.476;8.484;2023-06-14T02:22:10;22.30;59.30
12948;DHT22;6539;49.476;8.484;2023-06-14T02:24:38;22.20;59.50
12948;DHT22;6539;49.476;8.484;2023-06-14T02:27:04;22.30;59.50
12948;DHT22;6539;49.476;8.484;2023-06-14T02:29:32;22.40;59.70
12948;DHT22;6539;49.476;8.484;2023-06-14T02:32:00;22.40;60.00
12948;DHT22;6539;49.476;8.484;2023-06-14T02:34:26;22.40;60.40
12948;DHT22;6539;49.476;8.484;2023-06-14T02:36:52;22.40;60.60
12948;DHT22;6539;49.476;8.484;2023-06-14T02:39:20;22.40;61.00
12948;DHT22;6539;49.476;8.484;2023-06-14T02:41:49;22.40;61.40
12948;DHT22;6539;49.476;8.484;2023-06-14T02:44:17;22.40;61.70
12948;DHT22;6539;49.476;8.484;2023-06-14T02:46:44;22.40;62.20
12948;DHT22;6539;49.476;8.484;2023-06-14T02:49:11;22.30;62.80
12948;DHT22;6539;49.476;8.484;2023-06-14T02:51:37;22.20;63.30
12948;DHT22;6539;49.476;8.484;2023-06-14T02:54:05;22.10;63.50
12948;DHT22;6539;49.476;8.484;2023-06-14T02:56:35;22.20;64.00
12948;DHT22;6539;49.476;8.484;2023-06-14T02:59:02;22.20;64.20
12948;DHT22;6539;49.476;8.484;2023-06-14T03:01:27;22.10;64.30
12948;DHT22;6539;49.476;8.484;2023-06-14T03:04:03;22.10;64.60
12948;DHT22;6539;49.476;8.484;2023-06-14T03:06:32;22.00;64.90
12948;DHT22;6539;49.476;8.484;2023-06-14T03:08:58;22.00;65.20
12948;DHT22;6539;49.476;8.484;2023-06-14T03:11:30;21.80;73.10
12948;DHT22;6539;49.476;8.484;2023-06-14T03:13:56;21.90;65.70
12948;DHT22;6539;49.476;8.484;2023-06-14T03:16:22;21.90;65.90
12948;DHT22;6539;49.476;8.484;2023-06-14T03:18:52;21.80;66.40
12948;DHT22;6539;49.476;8.484;2023-06-14T03:21:20;21.80;66.80
12948;DHT22;6539;49.476;8.484;2023-06-14T03:23:47;21.90;75.30
12948;DHT22;6539;49.476;8.484;2023-06-14T03:26:16;21.80;67.40
12948;DHT22;6539;49.476;8.484;2023-06-14T03:28:47;21.70;67.80
12948;DHT22;6539;49.476;8.484;2023-06-14T03:31:15;21.80;68.00
12948;DHT22;6539;49.476;8.484;2023-06-14T03:33:41;21.70;67.50
12948;DHT22;6539;49.476;8.484;2023-06-14T03:36:07;21.70;68.40
12948;DHT22;6539;49.476;8.484;2023-06-14T03:38:36;21.60;68.70
12948;DHT22;6539;49.476;8.484;2023-06-14T03:41:06;21.60;68.80
12948;DHT22;6539;49.476;8.484;2023-06-14T03:43:32;21.50;69.30
12948;DHT22;6539;49.476;8.484;2023-06-14T03:45:58;21.50;69.50
12948;DHT22;6539;49.476;8.484;2023-06-14T03:48:31;21.50;69.50
12948;DHT22;6539;49.476;8.484;2023-06-14T03:50:58;21.50;70.10
12948;DHT22;6539;49.476;8.484;2023-06-14T03:53:24;21.40;69.80
12948;DHT22;6539;49.476;8.484;2023-06-14T03:58:19;21.30;70.00
12948;DHT22;6539;49.476;8.484;2023-06-14T04:00:50;21.30;70.50
12948;DHT22;6539;49.476;8.484;2023-06-14T04:03:18;21.30;70.60
12948;DHT22;6539;49.476;8.484;2023-06-14T04:05:45;21.30;70.70
12948;DHT22;6539;49.476;8.484;2023-06-14T04:08:14;21.20;71.00
12948;DHT22;6539;49.476;8.484;2023-06-14T04:10:41;21.10;70.70
12948;DHT22;6539;49.476;8.484;2023-06-14T04:13:07;21.10;71.50
12948;DHT22;6539;49.476;8.484;2023-06-14T04:15:32;21.10;71.70
12948;DHT22;6539;49.476;8.484;2023-06-14T04:17:59;21.00;71.80
12948;DHT22;6539;49.476;8.484;2023-06-14T04:20:25;21.10;71.90
12948;DHT22;6539;49.476;8.484;2023-06-14T04:22:52;21.10;71.90
12948;DHT22;6539;49.476;8.484;2023-06-14T04:25:20;21.10;71.70
12948;DHT22;6539;49.476;8.484;2023-06-14T04:27:46;21.00;71.70
12948;DHT22;6539;49.476;8.484;2023-06-14T04:30:15;21.00;71.20
12948;DHT22;6539;49.476;8.484;2023-06-14T04:32:43;21.00;71.80
12948;DHT22;6539;49.476;8.484;2023-06-14T04:35:13;20.90;71.90
12948;DHT22;6539;49.476;8.484;2023-06-14T04:37:42;20.90;71.40
12948;DHT22;6539;49.476;8.484;2023-06-14T04:40:09;21.00;71.90
12948;DHT22;6539;49.476;8.484;2023-06-14T04:42:38;21.00;71.90
12948;DHT22;6539;49.476;8.484;2023-06-14T04:45:06;21.10;71.30
12948;DHT22;6539;49.476;8.484;2023-06-14T04:47:32;21.10;71.50
12948;DHT22;6539;49.476;8.484;2023-06-14T04:49:59;21.10;71.50
12948;DHT22;6539;49.476;8.484;2023-06-14T04:52:28;21.20;71.70
12948;DHT22;6539;49.476;8.484;2023-06-14T04:54:55;21.30;71.50
12948;DHT22;6539;49.476;8.484;2023-06-14T04:57:26;21.50;70.30
12948;DHT22;6539;49.476;8.484;2023-06-14T04:59:54;21.40;70.70
12948;DHT22;6539;49.476;8.484;2023-06-14T05:02:23;21.50;70.30
12948;DHT22;6539;49.476;8.484;2023-06-14T05:04:52;21.40;71.00
12948;DHT22;6539;49.476;8.484;2023-06-14T05:07:19;21.30;78.70
12948;DHT22;6539;49.476;8.484;2023-06-14T05:09:54;21.50;71.40
12948;DHT22;6539;49.476;8.484;2023-06-14T05:12:24;21.60;70.70
12948;DHT22;6539;49.476;8.484;2023-06-14T05:14:50;21.80;71.30
12948;DHT22;6539;49.476;8.484;2023-06-14T05:17:16;22.00;69.80
12948;DHT22;6539;49.476;8.484;2023-06-14T05:19:44;22.10;69.20
12948;DHT22;6539;49.476;8.484;2023-06-14T05:22:11;22.10;70.20
12948;DHT22;6539;49.476;8.484;2023-06-14T05:24:40;21.80;77.10
12948;DHT22;6539;49.476;8.484;2023-06-14T05:27:07;21.90;77.10
12948;DHT22;6539;49.476;8.484;2023-06-14T05:29:36;21.90;69.70
12948;DHT22;6539;49.476;8.484;2023-06-14T05:32:01;22.00;70.10
12948;DHT22;6539;49.476;8.484;2023-06-14T05:34:29;22.00;70.10
12948;DHT22;6539;49.476;8.484;2023-06-14T05:36:58;22.00;70.20
12948;DHT22;6539;49.476;8.484;2023-06-14T05:39:24;22.10;70.00
12948;DHT22;6539;49.476;8.484;2023-06-14T05:41:50;22.10;70.40
12948;DHT22;6539;49.476;8.484;2023-06-14T05:44:17;22.10;70.80
12948;DHT22;6539;49.476;8.484;2023-06-14T05:46:46;22.10;70.30
12948;DHT22;6539;49.476;8.484;2023-06-14T05:49:14;22.20;70.10
12948;DHT22;6539;49.476;8.484;2023-06-14T05:51:42;22.20;70.40
12948;DHT22;6539;49.476;8.484;2023-06-14T05:54:08;22.30;70.40
12948;DHT22;6539;49.476;8.484;2023-06-14T05:59:00;22.20;79.60
12948;DHT22;6539;49.476;8.484;2023-06-14T06:01:25;22.10;71.40
12948;DHT22;6539;49.476;8.484;2023-06-14T06:03:51;22.20;71.30
12948;DHT22;6539;49.476;8.484;2023-06-14T06:06:19;22.20;71.20
12948;DHT22;6539;49.476;8.484;2023-06-14T06:08:45;22.20;71.40
12948;DHT22;6539;49.476;8.484;2023-06-14T06:11:11;22.40;71.90
12948;DHT22;6539;49.476;8.484;2023-06-14T06:13:40;22.40;70.70
12948;DHT22;6539;49.476;8.484;2023-06-14T06:16:06;22.40;71.00
12948;DHT22;6539;49.476;8.484;2023-06-14T06:18:32;22.40;71.00
12948;DHT22;6539;49.476;8.484;2023-06-14T06:20:58;22.60;71.30
12948;DHT22;6539;49.476;8.484;2023-06-14T06:23:24;22.60;69.70
12948;DHT22;6539;49.476;8.484;2023-06-14T06:25:50;22.70;70.30
12948;DHT22;6539;49.476;8.484;2023-06-14T06:28:15;22.80;68.90
12948;DHT22;6539;49.476;8.484;2023-06-14T06:30:44;22.80;69.20
12948;DHT22;6539;49.476;8.484;2023-06-14T06:33:09;22.70;68.80
12948;DHT22;6539;49.476;8.484;2023-06-14T06:35:38;22.80;68.90
12948;DHT22;6539;49.476;8.484;2023-06-14T06:38:04;22.90;68.80
12948;DHT22;6539;49.476;8.484;2023-06-14T06:40:32;23.00;68.50
12948;DHT22;6539;49.476;8.484;2023-06-14T06:42:57;23.10;67.90
12948;DHT22;6539;49.476;8.484;2023-06-14T06:45:23;23.20;67.90
12948;DHT22;6539;49.476;8.484;2023-06-14T06:47:50;23.20;67.40
12948;DHT22;6539;49.476;8.484;2023-06-14T06:50:16;23.20;66.40
12948;DHT22;6539;49.476;8.484;2023-06-14T06:52:43;23.30;67.90
12948;DHT22;6539;49.476;8.484;2023-06-14T06:55:11;23.50;66.80
12948;DHT22;6539;49.476;8.484;2023-06-14T06:57:42;23.60;66.60
12948;DHT22;6539;49.476;8.484;2023-06-14T07:00:08;23.90;65.90
12948;DHT22;6539;49.476;8.484;2023-06-14T07:02:35;24.20;73.00
12948;DHT22;6539;49.476;8.484;2023-06-14T07:05:04;24.20;65.90
12948;DHT22;6539;49.476;8.484;2023-06-14T07:07:32;24.30;65.30
12948;DHT22;6539;49.476;8.484;2023-06-14T07:10:01;24.80;71.60
12948;DHT22;6539;49.476;8.484;2023-06-14T07:12:30;24.70;64.50
12948;DHT22;6539;49.476;8.484;2023-06-14T07:14:57;25.00;69.80
12948;DHT22;6539;49.476;8.484;2023-06-14T07:17:23;24.90;63.50
12948;DHT22;6539;49.476;8.484;2023-06-14T07:19:51;25.20;63.00
12948;DHT22;6539;49.476;8.484;2023-06-14T07:22:16;25.40;62.70
12948;DHT22;6539;49.476;8.484;2023-06-14T07:24:43;25.50;62.30
12948;DHT22;6539;49.476;8.484;2023-06-14T07:27:13;25.70;61.70
12948;DHT22;6539;49.476;8.484;2023-06-14T07:29:39;26.10;60.50
12948;DHT22;6539;49.476;8.484;2023-06-14T07:32:07;26.20;60.80
12948;DHT22;6539;49.476;8.484;2023-06-14T07:34:38;26.10;60.00
12948;DHT22;6539;49.476;8.484;2023-06-14T07:37:04;26.30;59.90
12948;DHT22;6539;49.476;8.484;2023-06-14T07:39:29;26.40;60.00
12948;DHT22;6539;49.476;8.484;2023-06-14T07:41:58;26.70;59.70
12948;DHT22;6539;49.476;8.484;2023-06-14T07:44:23;26.90;59.20
12948;DHT22;6539;49.476;8.484;2023-06-14T07:46:51;27.00;58.60
12948;DHT22;6539;49.476;8.484;2023-06-14T07:49:23;27.10;58.60
12948;DHT22;6539;49.476;8.484;2023-06-14T07:51:49;27.30;58.00
12948;DHT22;6539;49.476;8.484;2023-06-14T07:54:16;27.30;58.50
12948;DHT22;6539;49.476;8.484;2023-06-14T07:56:45;27.30;57.90
12948;DHT22;6539;49.476;8.484;2023-06-14T07:59:16;27.50;57.40
12948;DHT22;6539;49.476;8.484;2023-06-14T08:01:41;27.50;57.10
12948;DHT22;6539;49.476;8.484;2023-06-14T08:04:13;27.50;57.60
12948;DHT22;6539;49.476;8.484;2023-06-14T08:06:39;27.70;57.40
12948;DHT22;6539;49.476;8.484;2023-06-14T08:09:05;27.90;56.70
12948;DHT22;6539;49.476;8.484;2023-06-14T08:11:33;28.10;56.70
12948;DHT22;6539;49.476;8.484;2023-06-14T08:14:04;28.00;56.70
12948;DHT22;6539;49.476;8.484;2023-06-14T08:16:29;28.00;56.50
12948;DHT22;6539;49.476;8.484;2023-06-14T08:18:55;28.00;56.80
12948;DHT22;6539;49.476;8.484;2023-06-14T08:21:23;28.10;55.90
12948;DHT22;6539;49.476;8.484;2023-06-14T08:23:54;28.30;55.30
12948;DHT22;6539;49.476;8.484;2023-06-14T08:26:27;28.40;55.30
12948;DHT22;6539;49.476;8.484;2023-06-14T08:28:57;28.30;54.70
12948;DHT22;6539;49.476;8.484;2023-06-14T08:31:25;28.30;54.00
12948;DHT22;6539;49.476;8.484;2023-06-14T08:33:53;28.20;54.50
12948;DHT22;6539;49.476;8.484;2023-06-14T08:36:21;28.20;55.00
12948;DHT22;6539;49.476;8.484;2023-06-14T08:38:49;28.20;55.10
12948;DHT22;6539;49.476;8.484;2023-06-14T08:41:21;28.20;54.50
12948;DHT22;6539;49.476;8.484;2023-06-14T08:43:55;28.30;54.30
12948;DHT22;6539;49.476;8.484;2023-06-14T08:46:25;28.60;58.40
12948;DHT22;6539;49.476;8.484;2023-06-14T08:48:55;28.50;53.80
12948;DHT22;6539;49.476;8.484;2023-06-14T08:51:22;28.60;54.20
12948;DHT22;6539;49.476;8.484;2023-06-14T08:53:59;28.70;53.90
12948;DHT22;6539;49.476;8.484;2023-06-14T08:56:31;28.70;52.90
12948;DHT22;6539;49.476;8.484;2023-06-14T08:59:02;28.60;52.80
12948;DHT22;6539;49.476;8.484;2023-06-14T09:01:35;28.60;53.20
12948;DHT22;6539;49.476;8.484;2023-06-14T09:04:03;29.00;56.80
12948;DHT22;6539;49.476;8.484;2023-06-14T09:06:33;28.90;53.00
12948;DHT22;6539;49.476;8.484;2023-06-14T09:09:01;29.10;53.10
12948;DHT22;6539;49.476;8.484;2023-06-14T09:11:30;29.00;51.70
12948;DHT22;6539;49.476;8.484;2023-06-14T09:13:56;29.00;52.40
12948;DHT22;6539;49.476;8.484;2023-06-14T09:16:22;28.90;52.20
12948;DHT22;6539;49.476;8.484;2023-06-14T09:18:48;29.00;52.50
12948;DHT22;6539;49.476;8.484;2023-06-14T09:21:18;28.80;52.00
12948;DHT22;6539;49.476;8.484;2023-06-14T09:23:45;28.90;50.10
12948;DHT22;6539;49.476;8.484;2023-06-14T09:26:16;29.10;49.20
12948;DHT22;6539;49.476;8.484;2023-06-14T09:28:47;29.30;48.40
12948;DHT22;6539;49.476;8.484;2023-06-14T09:31:17;29.30;46.90
12948;DHT22;6539;49.476;8.484;2023-06-14T09:33:50;29.30;48.50
12948;DHT22;6539;49.476;8.484;2023-06-14T09:36:24;29.30;50.10
12948;DHT22;6539;49.476;8.484;2023-06-14T09:38:56;29.40;51.00
12948;DHT22;6539;49.476;8.484;2023-06-14T09:41:35;29.10;53.80
12948;DHT22;6539;49.476;8.484;2023-06-14T09:44:05;29.50;49.60
12948;DHT22;6539;49.476;8.484;2023-06-14T09:46:32;29.50;49.60
12948;DHT22;6539;49.476;8.484;2023-06-14T09:49:00;29.50;50.10
12948;DHT22;6539;49.476;8.484;2023-06-14T09:51:30;29.80;49.30
12948;DHT22;6539;49.476;8.484;2023-06-14T09:54:00;29.90;48.30
12948;DHT22;6539;49.476;8.484;2023-06-14T09:56:32;29.90;48.20
12948;DHT22;6539;49.476;8.484;2023-06-14T09:59:09;29.80;49.00
12948;DHT22;6539;49.476;8.484;2023-06-14T10:01:42;29.80;49.20
12948;DHT22;6539;49.476;8.484;2023-06-14T10:04:12;29.90;49.30
12948;DHT22;6539;49.476;8.484;2023-06-14T10:06:45;29.80;49.00
12948;DHT22;6539;49.476;8.484;2023-06-14T10:09:12;29.70;47.70
12948;DHT22;6539;49.476;8.484;2023-06-14T10:11:40;29.50;47.90
12948;DHT22;6539;49.476;8.484;2023-06-14T10:14:10;29.70;48.70
12948;DHT22;6539;49.476;8.484;2023-06-14T10:16:52;29.90;48.80
12948;DHT22;6539;49.476;8.484;2023-06-14T10:19:42;30.10;48.50
12948;DHT22;6539;49.476;8.484;2023-06-14T10:22:35;30.20;48.90
12948;DHT22;6539;49.476;8.484;2023-06-14T10:25:12;30.30;48.60
12948;DHT22;6539;49.476;8.484;2023-06-14T10:27:38;30.00;48.60
12948;DHT22;6539;49.476;8.484;2023-06-14T10:30:14;29.70;49.20
12948;DHT22;6539;49.476;8.484;2023-06-14T10:33:07;29.60;49.30
12948;DHT22;6539;49.476;8.484;2023-06-14T10:35:35;29.80;49.20
12948;DHT22;6539;49.476;8.484;2023-06-14T10:38:11;29.80;49.40
12948;DHT22;6539;49.476;8.484;2023-06-14T10:40:40;30.10;49.00
12948;DHT22;6539;49.476;8.484;2023-06-14T10:43:22;30.10;48.50
12948;DHT22;6539;49.476;8.484;2023-06-14T10:46:26;30.10;48.30
12948;DHT22;6539;49.476;8.484;2023-06-14T10:48:57;30.10;48.40
12948;DHT22;6539;49.476;8.484;2023-06-14T10:51:29;30.10;48.20
12948;DHT22;6539;49.476;8.484;2023-06-14T10:54:12;29.90;48.60
12948;DHT22;6539;49.476;8.484;2023-06-14T10:56:49;29.80;48.40
12948;DHT22;6539;49.476;8.484;2023-06-14T10:59:17;30.10;48.70
12948;DHT22;6539;49.476;8.484;2023-06-14T11:04:50;29.70;52.50
12948;DHT22;6539;49.476;8.484;2023-06-14T11:07:55;29.80;48.90
12948;DHT22;6539;49.476;8.484;2023-06-14T11:10:37;30.10;51.90
12948;DHT22;6539;49.476;8.484;2023-06-14T11:13:05;30.00;48.80
12948;DHT22;6539;49.476;8.484;2023-06-14T11:15:36;30.20;48.30
12948;DHT22;6539;49.476;8.484;2023-06-14T11:18:06;30.00;48.00
12948;DHT22;6539;49.476;8.484;2023-06-14T11:20:39;30.10;48.20
12948;DHT22;6539;49.476;8.484;2023-06-14T11:23:10;30.20;48.30
12948;DHT22;6539;49.476;8.484;2023-06-14T11:25:36;30.20;48.10
12948;DHT22;6539;49.476;8.484;2023-06-14T11:28:04;30.20;48.30
12948;DHT22;6539;49.476;8.484;2023-06-14T11:30:30;30.10;47.40
12948;DHT22;6539;49.476;8.484;2023-06-14T11:32:58;30.20;47.60
12948;DHT22;6539;49.476;8.484;2023-06-14T11:35:27;30.10;47.70
12948;DHT22;6539;49.476;8.484;2023-06-14T11:37:56;30.20;48.00
12948;DHT22;6539;49.476;8.484;2023-06-14T11:40:28;30.30;50.20
12948;DHT22;6539;49.476;8.484;2023-06-14T11:43:01;30.30;47.10
12948;DHT22;6539;49.476;8.484;2023-06-14T11:45:28;30.30;47.20
12948;DHT22;6539;49.476;8.484;2023-06-14T11:47:56;30.20;47.30
12948;DHT22;6539;49.476;8.484;2023-06-14T11:50:27;30.10;47.00
12948;DHT22;6539;49.476;8.484;2023-06-14T11:52:56;30.00;47.20
12948;DHT22;6539;49.476;8.484;2023-06-14T11:55:27;30.00;47.00
12948;DHT22;6539;49.476;8.484;2023-06-14T11:57:56;29.90;47.30
12948;DHT22;6539;49.476;8.484;2023-06-14T12:00:25;30.10;51.50
12948;DHT22;6539;49.476;8.484;2023-06-14T12:02:57;30.20;47.80
12948;DHT22;6539;49.476;8.484;2023-06-14T12:05:28;30.40;47.30
12948;DHT22;6539;49.476;8.484;2023-06-14T12:08:01;30.40;47.60
12948;DHT22;6539;49.476;8.484;2023-06-14T12:10:29;30.10;48.00
12948;DHT22;6539;49.476;8.484;2023-06-14T12:12:59;29.80;48.30
12948;DHT22;6539;49.476;8.484;2023-06-14T12:15:28;29.60;48.40
12948;DHT22;6539;49.476;8.484;2023-06-14T12:17:54;29.70;48.60
12948;DHT22;6539;49.476;8.484;2023-06-14T12:20:21;29.90;48.20
12948;DHT22;6539;49.476;8.484;2023-06-14T12:22:57;30.00;48.90
12948;DHT22;6539;49.476;8.484;2023-06-14T12:25:35;30.10;48.50
12948;DHT22;6539;49.476;8.484;2023-06-14T12:28:09;30.10;48.70
12948;DHT22;6539;49.476;8.484;2023-06-14T12:30:38;30.20;48.80
12948;DHT22;6539;49.476;8.484;2023-06-14T12:33:05;30.30;48.70
12948;DHT22;6539;49.476;8.484;2023-06-14T12:35:31;30.20;48.80
12948;DHT22;6539;49.476;8.484;2023-06-14T12:37:57;29.80;48.80
12948;DHT22;6539;49.476;8.484;2023-06-14T12:40:25;29.40;49.00
12948;DHT22;6539;49.476;8.484;2023-06-14T12:42:51;29.20;49.30
12948;DHT22;6539;49.476;8.484;2023-06-14T12:45:17;29.20;49.30
12948;DHT22;6539;49.476;8.484;2023-06-14T12:47:45;29.30;49.00
12948;DHT22;6539;49.476;8.484;2023-06-14T12:50:11;29.30;52.60
12948;DHT22;6539;49.476;8.484;2023-06-14T12:52:39;29.30;48.80
12948;DHT22;6539;49.476;8.484;2023-06-14T12:55:07;29.60;48.80
12948;DHT22;6539;49.476;8.484;2023-06-14T12:57:33;29.90;48.20
12948;DHT22;6539;49.476;8.484;2023-06-14T13:00:06;30.00;48.00
12948;DHT22;6539;49.476;8.484;2023-06-14T13:02:37;30.20;47.90
12948;DHT22;6539;49.476;8.484;2023-06-14T13:05:03;30.20;47.80
12948;DHT22;6539;49.476;8.484;2023-06-14T13:07:32;30.00;47.30
12948;DHT22;6539;49.476;8.484;2023-06-14T13:10:00;29.50;47.90
12948;DHT22;6539;49.476;8.484;2023-06-14T13:12:28;29.40;48.50
12948;DHT22;6539;49.476;8.484;2023-06-14T13:14:58;29.30;48.70
12948;DHT22;6539;49.476;8.484;2023-06-14T13:17:23;29.00;49.00
12948;DHT22;6539;49.476;8.484;2023-06-14T13:19:51;28.90;49.40
12948;DHT22;6539;49.476;8.484;2023-06-14T13:22:22;28.70;49.20
12948;DHT22;6539;49.476;8.484;2023-06-14T13:24:50;28.80;49.40
12948;DHT22;6539;49.476;8.484;2023-06-14T13:27:18;28.90;49.00
12948;DHT22;6539;49.476;8.484;2023-06-14T13:29:46;28.90;49.00
12948;DHT22;6539;49.476;8.484;2023-06-14T13:32:12;29.00;49.10
12948;DHT22;6539;49.476;8.484;2023-06-14T13:34:37;29.00;49.30
12948;DHT22;6539;49.476;8.484;2023-06-14T13:37:08;28.90;49.50
12948;DHT22;6539;49.476;8.484;2023-06-14T13:39:33;28.60;49.70
12948;DHT22;6539;49.476;8.484;2023-06-14T13:41:59;28.50;49.90
12948;DHT22;6539;49.476;8.484;2023-06-14T13:44:28;28.40;50.10
12948;DHT22;6539;49.476;8.484;2023-06-14T13:46:53;28.40;50.10
12948;DHT22;6539;49.476;8.484;2023-06-14T13:49:19;28.20;50.20
12948;DHT22;6539;49.476;8.484;2023-06-14T13:51:45;28.10;50.40
12948;DHT22;6539;49.476;8.484;2023-06-14T13:54:15;28.10;50.50
12948;DHT22;6539;49.476;8.484;2023-06-14T13:56:49;28.20;50.60
12948;DHT22;6539;49.476;8.484;2023-06-14T13:59:15;28.20;50.70
12948;DHT22;6539;49.476;8.484;2023-06-14T14:01:46;28.10;50.60
12948;DHT22;6539;49.476;8.484;2023-06-14T14:04:15;28.00;50.70
12948;DHT22;6539;49.476;8.484;2023-06-14T14:06:46;28.00;50.90
12948;DHT22;6539;49.476;8.484;2023-06-14T14:09:12;28.10;50.90
12948;DHT22;6539;49.476;8.484;2023-06-14T14:11:38;28.30;50.70
12948;DHT22;6539;49.476;8.484;2023-06-14T14:14:05;28.30;50.60
12948;DHT22;6539;49.476;8.484;2023-06-14T14:16:31;28.50;50.60
12948;DHT22;6539;49.476;8.484;2023-06-14T14:18:59;28.50;50.10
12948;DHT22;6539;49.476;8.484;2023-06-14T14:21:24;28.50;50.30
12948;DHT22;6539;49.476;8.484;2023-06-14T14:23:52;28.30;50.40
12948;DHT22;6539;49.476;8.484;2023-06-14T14:26:18;28.30;50.50
12948;DHT22;6539;49.476;8.484;2023-06-14T14:28:44;28.30;50.60
12948;DHT22;6539;49.476;8.484;2023-06-14T14:31:10;28.30;50.60
12948;DHT22;6539;49.476;8.484;2023-06-14T14:33:38;28.40;51.30
12948;DHT22;6539;49.476;8.484;2023-06-14T14:36:07;28.30;51.10
12948;DHT22;6539;49.476;8.484;2023-06-14T14:38:34;28.20;50.80
12948;DHT22;6539;49.476;8.484;2023-06-14T14:41:03;28.10;50.60
12948;DHT22;6539;49.476;8.484;2023-06-14T14:43:28;27.90;50.70
12948;DHT22;6539;49.476;8.484;2023-06-14T14:45:56;27.70;50.50
12948;DHT22;6539;49.476;8.484;2023-06-14T14:48:24;27.60;54.90
12948;DHT22;6539;49.476;8.484;2023-06-14T14:50:51;27.50;51.20
12948;DHT22;6539;49.476;8.484;2023-06-14T14:53:17;27.50;51.00
12948;DHT22;6539;49.476;8.484;2023-06-14T14:55:45;27.50;51.20
12948;DHT22;6539;49.476;8.484;2023-06-14T14:58:12;27.60;51.10
12948;DHT22;6539;49.476;8.484;2023-06-14T15:00:42;27.70;51.20
12948;DHT22;6539;49.476;8.484;2023-06-14T15:03:08;27.90;51.60
12948;DHT22;6539;49.476;8.484;2023-06-14T15:05:33;28.00;51.40
12948;DHT22;6539;49.476;8.484;2023-06-14T15:08:04;28.00;51.20
12948;DHT22;6539;49.476;8.484;2023-06-14T15:10:39;27.90;51.60
12948;DHT22;6539;49.476;8.484;2023-06-14T15:13:11;27.90;51.40
12948;DHT22;6539;49.476;8.484;2023-06-14T15:15:39;27.70;51.30
12948;DHT22;6539;49.476;8.484;2023-06-14T15:18:09;27.60;51.40
12948;DHT22;6539;49.476;8.484;2023-06-14T15:20:37;27.50;51.50
12948;DHT22;6539;49.476;8.484;2023-06-14T15:23:07;27.40;51.20
12948;DHT22;6539;49.476;8.484;2023-06-14T15:25:32;27.30;50.90
12948;DHT22;6539;49.476;8.484;2023-06-14T15:28:01;27.40;51.20
12948;DHT22;6539;49.476;8.484;2023-06-14T15:30:32;27.30;51.40
12948;DHT22;6539;49.476;8.484;2023-06-14T15:33:00;27.40;51.80
12948;DHT22;6539;49.476;8.484;2023-06-14T15:35:26;27.50;51.10
12948;DHT22;6539;49.476;8.484;2023-06-14T15:37:53;27.60;50.80
12948;DHT22;6539;49.476;8.484;2023-06-14T15:40:22;27.90;55.20
12948;DHT22;6539;49.476;8.484;2023-06-14T15:42:48;27.50;54.80
12948;DHT22;6539;49.476;8.484;2023-06-14T15:45:13;27.60;51.20
12948;DHT22;6539;49.476;8.484;2023-06-14T15:47:39;27.60;51.40
12948;DHT22;6539;49.476;8.484;2023-06-14T15:50:06;27.60;51.30
12948;DHT22;6539;49.476;8.484;2023-06-14T15:52:35;27.60;51.10
12948;DHT22;6539;49.476;8.484;2023-06-14T15:55:01;27.60;51.10
12948;DHT22;6539;49.476;8.484;2023-06-14T15:57:29;27.50;51.20
12948;DHT22;6539;49.476;8.484;2023-06-14T15:59:57;27.50;51.50
12948;DHT22;6539;49.476;8.484;2023-06-14T16:02:23;27.50;51.90
12948;DHT22;6539;49.476;8.484;2023-06-14T16:04:49;27.50;51.80
12948;DHT22;6539;49.476;8.484;2023-06-14T16:07:17;27.50;51.80